• Join FlightAware (Why Join?)
  • Login
  • US Flag 
Gobble Gobble! 
07:50PM EST


 

Airport Tracker/Info


-or-


 

Live Flight TrackerFlight Track Log ✈ SWA921 ✈ 06-Jun-2014 ✈ KMDW - KMHT

Flight Track Log - Related Links

Times and Time Zones

All times are in EDT time to prevent confusion due to time zone crossing. See the SWA921 flight status page for this flight to view local times or setup timezone preferences in your user account.

Time Position Orientation Groundspeed Altitude Reporting Facility
EDT Latitude Longitude Course Direction KTS MPH feet Rate Location/Type
10:35AM 41.7964 -87.7053 86° East 176 203 2,400  Level Chicago Center
10:36AM 41.7731 -87.6181 110° East 231 266 4,500 2,520 Climbing Chicago Center
10:37AM 41.7600 -87.5231 100° East 270 311 7,700 3,180 Climbing Chicago Center
10:38AM 41.7608 -87.4142 89° East 293 337 11,100 3,360 Climbing Chicago Center
10:39AM 41.7619 -87.2839 89° East 325 374 14,700 2,700 Climbing Chicago Center
10:40AM 41.7622 -87.1458 90° East 380 437 16,800 2,400 Climbing Chicago Center
10:41AM 41.7506 -86.8051 86° East  Level FlightAware Approximate
10:42AM 41.7619 -86.9828 90° East 400 460 19,700  Level Chicago Center
10:43AM 41.7606 -86.8244 91° East 420 483 22,400 2,340 Climbing Chicago Center
10:44AM 41.7606 -86.6792 90° East 430 495 24,600 1,980 Climbing Chicago Center
10:45AM 41.7578 -86.5106 91° East 451 519 26,600 1,980 Climbing Chicago Center
10:46AM 41.7569 -86.3008 90° East 467 537 28,800 1,800 Climbing Chicago Center
10:47AM 41.7564 -86.1200 90° East 481 554 30,400 1,440 Climbing Chicago Center
10:48AM 41.7572 -85.9347 90° East 494 568 31,900 1,500 Climbing Chicago Center
10:49AM 41.7600 -85.7458 89° East 501 577 33,600 1,560 Climbing Chicago Center
10:50AM 41.7786 -85.5606 82° East 500 575 35,200 1,560 Climbing Chicago Center
10:51AM 41.8572 -85.4108 55° Northeast 485 558 36,900 1,380 Climbing Chicago Center
10:52AM 41.9342 -85.2633 55° Northeast 480 552 38,100 960 Climbing Chicago Center
10:53AM 41.9611 -85.0867 78° East 499 574 38,900 420 Climbing Chicago Center
10:54AM 41.9764 -84.8647 85° East 498 573 39,000  Climbing Chicago Center
10:55AM 41.9989 -84.6689 81° East 504 580 39,000  Level Chicago Center
10:56AM 42.0100 -84.5692 81° East 498 573 39,000  Level Cleveland Center
10:57AM 42.0311 -84.3842 81° East 500 575 39,000  Level Cleveland Center
10:58AM 42.0536 -84.1808 81° East 500 575 39,000  Level Cleveland Center
10:59AM 42.0747 -83.9969 81° East 500 575 39,000  Level Cleveland Center
11:00AM 42.0942 -83.8136 82° East 500 575 39,000  Level Cleveland Center
11:01AM 42.1133 -83.6331 82° East 495 570 39,000  Level Cleveland Center
11:02AM 42.1347 -83.4300 82° East 496 571 39,000  Level Cleveland Center
11:03AM 42.1558 -83.2447 81° East 497 572 39,000  Level Cleveland Center
11:04AM 42.1753 -83.0553 82° East 497 572 39,000  Level Cleveland Center
11:05AM 42.1939 -82.8742 82° East 496 571 39,000  Level Cleveland Center
11:06AM 42.2161 -82.6553 82° East 495 570 39,000  Level Cleveland Center
11:07AM 42.2339 -82.4728 82° East 494 568 39,000  Level Cleveland Center
11:08AM 42.2517 -82.2908 82° East 494 568 39,000  Level Cleveland Center
11:09AM 42.2700 -82.1028 82° East 493 567 39,000  Level Cleveland Center
11:10AM 42.2869 -81.9164 83° East 493 567 39,000  Level Cleveland Center
11:11AM 42.3042 -81.7308 83° East 493 567 39,000  Level Cleveland Center
11:12AM 42.3203 -81.5456 83° East 493 567 39,000  Level Cleveland Center
11:13AM 42.3389 -81.3294 83° East 493 567 39,000  Level Cleveland Center
11:14AM 42.3567 -81.1450 83° East 492 566 39,000  Level Cleveland Center
11:15AM 42.3711 -80.9608 84° East 490 564 39,000  Level Cleveland Center
11:16AM 42.3867 -80.7764 83° East 490 564 39,000  Level Cleveland Center
11:17AM 42.4019 -80.5928 84° East 485 558 39,000  Level Cleveland Center
11:18AM 42.4178 -80.4092 83° East 485 558 39,000  Level Cleveland Center
11:19AM 42.4308 -80.2250 84° East 488 562 39,000  Level Cleveland Center
11:20AM 42.4447 -80.0403 84° East 488 562 39,000  Level Cleveland Center
11:21AM 42.4608 -79.8306 84° East 484 557 39,000  Level Cleveland Center
11:22AM 42.4744 -79.6456 84° East 490 564 39,000  Level Cleveland Center
11:23AM 42.4875 -79.4631 84° East 490 564 39,000  Level Cleveland Center
11:25AM 42.4997 -79.2800 85° East 490 564 39,000  Level Cleveland Center
11:26AM 42.5122 -79.0969 85° East 490 564 39,000  Level Cleveland Center
11:27AM 42.5242 -78.9111 85° East 494 568 39,000  Level Cleveland Center
11:28AM 42.5367 -78.7267 85° East 494 568 39,000  Level Cleveland Center
11:29AM 42.5500 -78.5061 85° East 491 565 39,000  Level Cleveland Center
11:30AM 42.5625 -78.3208 85° East 491 565 39,000  Level Cleveland Center
11:31AM 42.5736 -78.1336 85° East 496 571 39,000  Level Cleveland Center
11:32AM 42.5847 -77.9464 85° East 499 574 39,000  Level Cleveland Center
11:33AM 42.5961 -77.7331 86° East 499 574 39,000  Level Cleveland Center
11:34AM 42.6064 -77.5453 86° East 500 575 39,000  Level Cleveland Center
11:35AM 42.6167 -77.3586 86° East 503 579 39,000  Level Cleveland Center
11:36AM 42.6264 -77.1706 86° East 503 579 39,000  Level Cleveland Center
11:37AM 42.6356 -76.9814 86° East 503 579 39,000  Level Cleveland Center
11:38AM 42.6444 -76.7908 86° East 503 579 39,000  Level Cleveland Center
11:39AM 42.6547 -76.5631 86° East 504 580 39,000  Level Cleveland Center
11:40AM 42.6644 -76.3686 86° East 504 580 39,000 -480 Level Cleveland Center
11:41AM 42.6725 -76.1792 87° East 504 580 38,100 -1,260 Descending Cleveland Center
11:42AM 42.6800 -75.9917 87° East 504 580 36,500 -1,620 Descending Cleveland Center
11:43AM 42.6872 -75.8075 87° East 495 570 34,900 -1,500 Descending Cleveland Center
11:44AM 42.6939 -75.6214 87° East 495 570 33,500 -1,560 Descending Cleveland Center
11:45AM 42.7022 -75.3958 87° East 496 571 31,700 -1,680 Descending Cleveland Center
11:46AM 42.7081 -75.2094 87° East 496 571 30,100 -1,320 Descending Cleveland Center
11:47AM 42.7142 -75.0269 87° East 495 570 29,000 -480 Descending Cleveland Center
11:49AM 42.7219 -74.7758 88° East 485 558 29,000  Level Boston Center
11:50AM 42.7267 -74.5939 88° East 485 558 29,000  Level Boston Center
11:51AM 42.7328 -74.4125 87° East 484 557 29,000 -300 Level Boston Center
11:52AM 42.7383 -74.2303 88° East 484 557 28,500 -840 Descending Boston Center
11:53AM 42.7275 -74.0231 94° East 482 555 27,400 -1,020 Descending Boston Center
11:54AM 42.7092 -73.8433 98° East 482 555 26,400 -1,020 Descending Boston Center
11:55AM 42.6917 -73.6689 98° East 470 541 25,400 -1,020 Descending Boston Center
11:56AM 42.6753 -73.4953 97° East 467 537 24,400 -1,020 Descending Boston Center
11:57AM 42.6592 -73.3256 97° East 458 527 23,400 -1,020 Descending Boston Center
11:58AM 42.6547 -73.1569 92° East 444 511 22,400 -1,020 Descending Boston Center
11:59AM 42.6811 -72.9908 78° East 430 495 21,400 -1,020 Descending Boston Center
12:00PM 42.7064 -72.8364 77° East 424 488 20,300 -1,380 Descending Boston Center
12:01PM 42.7350 -72.6569 78° East 414 476 18,600 -1,860 Descending Boston Center
12:02PM 42.7583 -72.5131 77° East 397 457 16,500 -2,040 Descending Boston Center
12:03PM 42.7814 -72.3753 77° East 380 437 14,400 -2,100 Descending Boston Center
12:04PM 42.8019 -72.2289 79° East 368 423 12,200 -1,920 Descending Boston Center
12:05PM 42.8094 -72.0956 86° East 356 410 10,500 -1,260 Descending Boston Center
12:06PM 42.8192 -71.9694 84° East 311 358 9,600 -720 Descending Boston Center
12:07PM 42.8283 -71.8589 84° East 298 343 9,100 -780 Descending Boston Center
12:08PM 42.8583 -71.7589 68° East 291 335 8,100 -1,200 Descending Boston Center
12:09PM 42.8892 -71.6533 68° East 281 323 6,700 -1,440 Descending Boston Center
12:10PM 42.9056 -71.5492 78° East 285 328 5,200 -1,260 Descending Boston Center
12:11PM 42.8447 -71.4825 141° Southeast 283 326 4,100 -600 Descending Boston Center
12:12PM 42.7758 -71.4556 164° South 262 302 4,000 -540 Descending Boston Center
12:13PM 42.7367 -71.3819 126° Southeast 257 296 3,000 -780 Descending Boston Center
12:14PM 42.7867 -71.3475 27° Northeast 208 239 2,400 -540 Descending Boston Center
12:15PM 42.8350 -71.3758 337° Northwest 188 216 2,000 -540 Descending Boston Center
12:16PM 42.8750 -71.3986 337° Northwest 157 181 1,300 -780 Descending Boston Center
12:17PM 42.9117 -71.4208 336° Northwest 139 160 500 -780 Descending Boston Center
12:19PM 42.9167 -71.4333 316° Northwest  Level FlightAware Approximate
12:26PM 42.9328 -71.4358 316° Northwest  Level Estimated